THY256 LTFM-UAIT
Flight info
| Callsign | THY256 |
|---|---|
| Flight time | 4h 7m |
| Altitude | 35000 |
| Route | EKAWE UT643 GAKSU UT310 SIN UN644 ROLIN N644 LAGAS M747 SUBUT T916 BALUN/K0837F350 T916 ARNUS/K0845F370 T916 KUNAS Z627 OFFES N147 KARIM |
| Aircraft | B739/M-SDE2E3FGHIRWXY/LB1 |
Departure
| Time | 2026-05-07 10:28 |
|---|---|
| Airport | İstanbul Airport (LTFM) |
Arrival
| Time | 2026-05-07 14:35 |
|---|---|
| Airport | Hazrat Sultan International Airport (UAIT) |
| Time | Latitude | Longitude | Altitude | Speed | Heading |
|---|---|---|---|---|---|
| 2026-05-07 10:07 | 41.26389 | 28.74914 | 333 ft | 0 kts | 287° |
| 2026-05-07 10:19 | 41.26383 | 28.74941 | 329 ft | 4 kts | 287° |
| 2026-05-07 10:19 | 41.26375 | 28.74975 | 332 ft | 3 kts | 287° |
| 2026-05-07 10:20 | 41.26370 | 28.75003 | 331 ft | 4 kts | 272° |
| 2026-05-07 10:20 | 41.26374 | 28.75034 | 330 ft | 4 kts | 228° |
| 2026-05-07 10:20 | 41.26394 | 28.75049 | 331 ft | 3 kts | 197° |
| 2026-05-07 10:20 | 41.26398 | 28.75050 | 330 ft | 0 kts | 197° |
| 2026-05-07 10:24 | 41.26389 | 28.75047 | 331 ft | 3 kts | 197° |
| 2026-05-07 10:24 | 41.26349 | 28.75031 | 330 ft | 9 kts | 197° |
| 2026-05-07 10:25 | 41.26274 | 28.75012 | 330 ft | 12 kts | 165° |
| 2026-05-07 10:25 | 41.26243 | 28.75101 | 333 ft | 11 kts | 89° |
| 2026-05-07 10:25 | 41.26245 | 28.75206 | 333 ft | 11 kts | 88° |
| 2026-05-07 10:25 | 41.26246 | 28.75307 | 333 ft | 11 kts | 89° |
| 2026-05-07 10:26 | 41.26248 | 28.75406 | 333 ft | 11 kts | 89° |
| 2026-05-07 10:26 | 41.26249 | 28.75502 | 333 ft | 10 kts | 89° |
| 2026-05-07 10:26 | 41.26251 | 28.75595 | 333 ft | 10 kts | 88° |
| 2026-05-07 10:26 | 41.26286 | 28.75666 | 332 ft | 10 kts | 20° |
| 2026-05-07 10:27 | 41.26348 | 28.75667 | 331 ft | 6 kts | 359° |
| 2026-05-07 10:27 | 41.26400 | 28.75666 | 332 ft | 11 kts | 359° |
| 2026-05-07 10:27 | 41.26650 | 28.75661 | 331 ft | 69 kts | 359° |
| 2026-05-07 10:27 | 41.27351 | 28.75649 | 330 ft | 129 kts | 359° |
| 2026-05-07 10:28 | 41.28415 | 28.75643 | 353 ft | 174 kts | 359° |
| 2026-05-07 10:28 | 41.29619 | 28.75610 | 972 ft | 172 kts | 0° |
| 2026-05-07 10:28 | 41.30810 | 28.75959 | 1474 ft | 185 kts | 31° |
| 2026-05-07 10:28 | 41.31654 | 28.77337 | 1704 ft | 206 kts | 70° |
| 2026-05-07 10:29 | 41.32427 | 28.79038 | 1842 ft | 230 kts | 37° |
| 2026-05-07 10:29 | 41.33919 | 28.79934 | 2181 ft | 241 kts | 18° |
| 2026-05-07 10:29 | 41.35484 | 28.80773 | 2751 ft | 244 kts | 23° |
| 2026-05-07 10:30 | 41.38699 | 28.82464 | 3992 ft | 250 kts | 2° |
| 2026-05-07 10:30 | 41.40426 | 28.82520 | 4748 ft | 251 kts | 9° |
| 2026-05-07 10:30 | 41.41969 | 28.83599 | 5409 ft | 259 kts | 45° |
| 2026-05-07 10:30 | 41.42779 | 28.85741 | 6053 ft | 267 kts | 79° |
| 2026-05-07 10:31 | 41.42979 | 28.88215 | 6739 ft | 270 kts | 80° |
| 2026-05-07 10:31 | 41.43240 | 28.90704 | 7371 ft | 272 kts | 78° |
| 2026-05-07 10:31 | 41.43540 | 28.93202 | 8040 ft | 274 kts | 77° |
| 2026-05-07 10:31 | 41.43863 | 28.95710 | 8732 ft | 276 kts | 77° |
| 2026-05-07 10:32 | 41.44195 | 28.98235 | 9448 ft | 277 kts | 77° |
| 2026-05-07 10:32 | 41.44533 | 29.00775 | 10137 ft | 279 kts | 77° |
| 2026-05-07 10:32 | 41.44885 | 29.03383 | 10429 ft | 296 kts | 76° |
| 2026-05-07 10:32 | 41.45369 | 29.06149 | 10587 ft | 316 kts | 72° |
| 2026-05-07 10:33 | 41.45956 | 29.09075 | 10747 ft | 336 kts | 72° |
| 2026-05-07 10:33 | 41.46591 | 29.12162 | 10953 ft | 353 kts | 72° |
| 2026-05-07 10:33 | 41.47242 | 29.15358 | 11437 ft | 360 kts | 72° |
| 2026-05-07 10:33 | 41.47891 | 29.18583 | 12051 ft | 362 kts | 72° |
| 2026-05-07 10:34 | 41.48534 | 29.21809 | 12665 ft | 363 kts | 72° |
| 2026-05-07 10:34 | 41.49185 | 29.25101 | 13274 ft | 366 kts | 72° |
| 2026-05-07 10:34 | 41.49836 | 29.28403 | 13854 ft | 369 kts | 72° |
| 2026-05-07 10:34 | 41.50491 | 29.31732 | 14376 ft | 372 kts | 72° |
| 2026-05-07 10:35 | 41.51149 | 29.35091 | 14889 ft | 376 kts | 72° |
| 2026-05-07 10:35 | 41.51812 | 29.38474 | 15435 ft | 379 kts | 72° |
| 2026-05-07 10:35 | 41.52480 | 29.41894 | 15950 ft | 383 kts | 72° |
| 2026-05-07 10:35 | 41.53154 | 29.45350 | 16463 ft | 386 kts | 72° |
| 2026-05-07 10:36 | 41.53832 | 29.48831 | 16980 ft | 390 kts | 72° |
| 2026-05-07 10:36 | 41.54516 | 29.52348 | 17485 ft | 393 kts | 73° |
| 2026-05-07 10:36 | 41.55195 | 29.55842 | 17993 ft | 396 kts | 73° |
| 2026-05-07 10:36 | 41.55888 | 29.59422 | 18485 ft | 399 kts | 73° |
| 2026-05-07 10:37 | 41.56584 | 29.63020 | 18929 ft | 402 kts | 73° |
| 2026-05-07 10:37 | 41.57284 | 29.66648 | 19385 ft | 405 kts | 73° |
| 2026-05-07 10:37 | 41.57987 | 29.70298 | 19841 ft | 407 kts | 73° |
| 2026-05-07 10:37 | 41.58694 | 29.73979 | 20284 ft | 410 kts | 73° |
| 2026-05-07 10:38 | 41.59404 | 29.77674 | 20736 ft | 412 kts | 73° |
| 2026-05-07 10:38 | 41.60118 | 29.81400 | 21163 ft | 415 kts | 73° |
| 2026-05-07 10:38 | 41.60835 | 29.85145 | 21573 ft | 418 kts | 73° |
| 2026-05-07 10:38 | 41.61554 | 29.88914 | 21982 ft | 420 kts | 73° |
| 2026-05-07 10:39 | 41.62276 | 29.92706 | 22384 ft | 422 kts | 73° |
| 2026-05-07 10:39 | 41.63002 | 29.96524 | 22777 ft | 425 kts | 73° |
| 2026-05-07 10:39 | 41.63731 | 30.00365 | 23175 ft | 427 kts | 73° |
| 2026-05-07 10:39 | 41.64461 | 30.04224 | 23568 ft | 430 kts | 72° |
| 2026-05-07 10:40 | 41.65196 | 30.08110 | 23913 ft | 432 kts | 72° |
| 2026-05-07 10:40 | 41.65933 | 30.12019 | 24262 ft | 434 kts | 72° |
| 2026-05-07 10:40 | 41.66671 | 30.15943 | 24606 ft | 436 kts | 72° |
| 2026-05-07 10:40 | 41.67413 | 30.19889 | 24941 ft | 439 kts | 72° |
| 2026-05-07 10:41 | 41.68158 | 30.23862 | 25266 ft | 441 kts | 72° |
| 2026-05-07 10:41 | 41.68905 | 30.27851 | 25569 ft | 444 kts | 72° |
| 2026-05-07 10:41 | 41.69645 | 30.31817 | 25899 ft | 446 kts | 72° |
| 2026-05-07 10:41 | 41.70407 | 30.35912 | 26224 ft | 448 kts | 72° |
| 2026-05-07 10:42 | 41.71162 | 30.39971 | 26536 ft | 451 kts | 72° |
| 2026-05-07 10:42 | 41.71908 | 30.43996 | 26847 ft | 453 kts | 72° |
| 2026-05-07 10:42 | 41.72666 | 30.48094 | 27155 ft | 455 kts | 72° |
| 2026-05-07 10:42 | 41.73427 | 30.52215 | 27458 ft | 457 kts | 72° |
| 2026-05-07 10:43 | 41.74191 | 30.56355 | 27757 ft | 459 kts | 72° |
| 2026-05-07 10:43 | 41.74957 | 30.60518 | 28055 ft | 461 kts | 72° |
| 2026-05-07 10:43 | 41.75728 | 30.64691 | 28341 ft | 463 kts | 72° |
| 2026-05-07 10:43 | 41.76525 | 30.68882 | 28633 ft | 465 kts | 71° |
| 2026-05-07 10:44 | 41.77333 | 30.73080 | 28921 ft | 467 kts | 71° |
| 2026-05-07 10:44 | 41.78146 | 30.77298 | 29247 ft | 468 kts | 71° |
| 2026-05-07 10:44 | 41.78953 | 30.81509 | 29675 ft | 466 kts | 71° |
| 2026-05-07 10:44 | 41.79754 | 30.85709 | 30130 ft | 464 kts | 71° |
| 2026-05-07 10:45 | 41.80547 | 30.89892 | 30494 ft | 463 kts | 71° |
| 2026-05-07 10:45 | 41.81339 | 30.94072 | 30801 ft | 462 kts | 71° |
| 2026-05-07 10:45 | 41.82128 | 30.98250 | 31105 ft | 462 kts | 71° |
| 2026-05-07 10:45 | 41.82913 | 31.02413 | 31443 ft | 460 kts | 71° |
| 2026-05-07 10:46 | 41.83694 | 31.06568 | 31775 ft | 459 kts | 71° |
| 2026-05-07 10:46 | 41.84490 | 31.10708 | 32083 ft | 457 kts | 70° |
| 2026-05-07 10:46 | 41.85351 | 31.14810 | 32377 ft | 456 kts | 69° |
| 2026-05-07 10:46 | 41.86243 | 31.18888 | 32667 ft | 455 kts | 69° |
| 2026-05-07 10:47 | 41.87139 | 31.22954 | 32970 ft | 454 kts | 69° |
| 2026-05-07 10:47 | 41.88026 | 31.27014 | 33268 ft | 453 kts | 69° |
| 2026-05-07 10:47 | 41.88903 | 31.31074 | 33545 ft | 452 kts | 69° |
| 2026-05-07 10:47 | 41.89771 | 31.35130 | 33788 ft | 452 kts | 69° |
| 2026-05-07 10:48 | 41.90635 | 31.39187 | 34054 ft | 452 kts | 70° |
| 2026-05-07 10:48 | 41.91482 | 31.43184 | 34289 ft | 451 kts | 70° |
| 2026-05-07 10:48 | 41.92338 | 31.47231 | 34468 ft | 451 kts | 70° |
| 2026-05-07 10:48 | 41.93196 | 31.51288 | 34625 ft | 452 kts | 70° |
| 2026-05-07 10:49 | 41.94054 | 31.55351 | 34791 ft | 452 kts | 70° |
| 2026-05-07 10:49 | 41.94909 | 31.59413 | 34977 ft | 452 kts | 70° |
| 2026-05-07 10:49 | 41.95754 | 31.63477 | 35140 ft | 452 kts | 70° |
| 2026-05-07 10:49 | 41.96594 | 31.67552 | 35144 ft | 454 kts | 70° |
| 2026-05-07 10:50 | 41.98269 | 31.75728 | 35165 ft | 453 kts | 70° |
| 2026-05-07 10:50 | 41.99936 | 31.83873 | 35159 ft | 451 kts | 70° |
| 2026-05-07 10:51 | 42.01596 | 31.91994 | 35162 ft | 450 kts | 70° |
| 2026-05-07 10:51 | 42.03260 | 32.00096 | 35164 ft | 449 kts | 70° |
| 2026-05-07 10:52 | 42.04916 | 32.08184 | 35170 ft | 448 kts | 71° |
| 2026-05-07 10:52 | 42.06564 | 32.16275 | 35170 ft | 448 kts | 71° |
| 2026-05-07 10:53 | 42.08209 | 32.24378 | 35169 ft | 449 kts | 71° |
| 2026-05-07 10:53 | 42.09912 | 32.32459 | 35165 ft | 448 kts | 69° |
| 2026-05-07 10:54 | 42.11804 | 32.40463 | 35162 ft | 449 kts | 68° |
| 2026-05-07 10:54 | 42.13686 | 32.48490 | 35167 ft | 450 kts | 69° |
| 2026-05-07 10:55 | 42.15524 | 32.56491 | 35172 ft | 450 kts | 69° |
| 2026-05-07 10:55 | 42.16812 | 32.64824 | 35164 ft | 456 kts | 84° |
| 2026-05-07 10:56 | 42.16993 | 32.73327 | 35172 ft | 457 kts | 85° |
| 2026-05-07 10:56 | 42.17113 | 32.81889 | 35170 ft | 457 kts | 85° |
| 2026-05-07 10:57 | 42.17271 | 32.90434 | 35169 ft | 456 kts | 85° |
| 2026-05-07 10:57 | 42.17451 | 32.98973 | 35167 ft | 455 kts | 85° |
| 2026-05-07 10:58 | 42.17630 | 33.07490 | 35168 ft | 454 kts | 85° |
| 2026-05-07 10:58 | 42.17801 | 33.15994 | 35165 ft | 453 kts | 85° |
| 2026-05-07 10:59 | 42.17965 | 33.24487 | 35169 ft | 453 kts | 86° |
| 2026-05-07 10:59 | 42.18122 | 33.32969 | 35162 ft | 452 kts | 86° |
| 2026-05-07 11:00 | 42.18273 | 33.41435 | 35165 ft | 451 kts | 86° |
| 2026-05-07 11:00 | 42.18417 | 33.49894 | 35166 ft | 451 kts | 86° |
| 2026-05-07 11:01 | 42.18555 | 33.58351 | 35173 ft | 451 kts | 86° |
| 2026-05-07 11:01 | 42.18687 | 33.66808 | 35171 ft | 451 kts | 86° |
| 2026-05-07 11:02 | 42.18813 | 33.75217 | 35168 ft | 452 kts | 86° |
| 2026-05-07 11:02 | 42.18715 | 33.83692 | 35155 ft | 455 kts | 96° |
| 2026-05-07 11:03 | 42.17671 | 33.92117 | 35161 ft | 456 kts | 98° |
| 2026-05-07 11:03 | 42.16546 | 34.00542 | 35169 ft | 457 kts | 98° |
| 2026-05-07 11:04 | 42.15642 | 34.07558 | 35163 ft | 457 kts | 97° |
| 2026-05-07 11:04 | 42.14575 | 34.16009 | 35166 ft | 458 kts | 97° |
| 2026-05-07 11:05 | 42.13506 | 34.24473 | 35163 ft | 458 kts | 97° |
| 2026-05-07 11:05 | 42.12429 | 34.32935 | 35163 ft | 458 kts | 98° |
| 2026-05-07 11:06 | 42.11344 | 34.41400 | 35162 ft | 458 kts | 98° |
| 2026-05-07 11:06 | 42.10220 | 34.49846 | 35164 ft | 459 kts | 98° |
| 2026-05-07 11:07 | 42.09043 | 34.58290 | 35156 ft | 458 kts | 98° |
| 2026-05-07 11:07 | 42.07866 | 34.66727 | 35162 ft | 458 kts | 98° |
| 2026-05-07 11:08 | 42.06699 | 34.75101 | 35159 ft | 458 kts | 98° |
| 2026-05-07 11:08 | 42.05520 | 34.83521 | 35165 ft | 458 kts | 99° |
| 2026-05-07 11:09 | 42.04368 | 34.91953 | 35162 ft | 458 kts | 98° |
| 2026-05-07 11:09 | 42.03262 | 35.00392 | 35178 ft | 458 kts | 98° |
| 2026-05-07 11:10 | 42.02176 | 35.08850 | 35169 ft | 458 kts | 95° |
| 2026-05-07 11:10 | 42.01655 | 35.17386 | 35174 ft | 458 kts | 92° |
| 2026-05-07 11:11 | 42.01277 | 35.25937 | 35179 ft | 458 kts | 92° |
| 2026-05-07 11:11 | 42.00865 | 35.34485 | 35182 ft | 458 kts | 92° |
| 2026-05-07 11:12 | 42.00411 | 35.43024 | 35178 ft | 458 kts | 92° |
| 2026-05-07 11:12 | 41.99939 | 35.51554 | 35181 ft | 458 kts | 93° |
| 2026-05-07 11:13 | 41.99459 | 35.60081 | 35179 ft | 457 kts | 93° |
| 2026-05-07 11:13 | 41.98974 | 35.68604 | 35185 ft | 457 kts | 93° |
| 2026-05-07 11:14 | 41.98488 | 35.77063 | 35181 ft | 457 kts | 93° |
| 2026-05-07 11:14 | 41.97989 | 35.85630 | 35185 ft | 457 kts | 93° |
| 2026-05-07 11:15 | 41.97487 | 35.94140 | 35185 ft | 457 kts | 94° |
| 2026-05-07 11:15 | 41.96979 | 36.02645 | 35186 ft | 457 kts | 94° |
| 2026-05-07 11:16 | 41.96464 | 36.11146 | 35184 ft | 457 kts | 94° |
| 2026-05-07 11:16 | 41.95947 | 36.19589 | 35188 ft | 456 kts | 94° |
| 2026-05-07 11:17 | 41.95420 | 36.28092 | 35187 ft | 457 kts | 94° |
| 2026-05-07 11:17 | 41.94887 | 36.36587 | 35188 ft | 457 kts | 94° |
| 2026-05-07 11:18 | 41.94347 | 36.45090 | 35187 ft | 457 kts | 94° |
| 2026-05-07 11:18 | 41.93801 | 36.53591 | 35190 ft | 457 kts | 94° |
| 2026-05-07 11:19 | 41.93249 | 36.62095 | 35189 ft | 457 kts | 94° |
| 2026-05-07 11:19 | 41.92690 | 36.70599 | 35194 ft | 457 kts | 94° |
| 2026-05-07 11:20 | 41.92125 | 36.79105 | 35191 ft | 457 kts | 94° |
| 2026-05-07 11:20 | 41.91553 | 36.87612 | 35194 ft | 458 kts | 94° |
| 2026-05-07 11:21 | 41.90976 | 36.96116 | 35194 ft | 458 kts | 94° |
| 2026-05-07 11:21 | 41.90399 | 37.04622 | 35194 ft | 458 kts | 93° |
| 2026-05-07 11:22 | 41.90157 | 37.13158 | 35194 ft | 457 kts | 90° |
| 2026-05-07 11:22 | 41.90092 | 37.21687 | 35195 ft | 457 kts | 90° |
| 2026-05-07 11:23 | 41.90009 | 37.30219 | 35195 ft | 457 kts | 90° |
| 2026-05-07 11:23 | 41.89886 | 37.38698 | 35198 ft | 457 kts | 90° |
| 2026-05-07 11:24 | 41.89743 | 37.47233 | 35198 ft | 457 kts | 90° |
| 2026-05-07 11:24 | 41.89591 | 37.55767 | 35199 ft | 457 kts | 90° |
| 2026-05-07 11:25 | 41.89433 | 37.64300 | 35198 ft | 457 kts | 91° |
| 2026-05-07 11:25 | 41.89270 | 37.72833 | 35203 ft | 457 kts | 91° |
| 2026-05-07 11:26 | 41.89101 | 37.81358 | 35200 ft | 457 kts | 91° |
| 2026-05-07 11:26 | 41.88926 | 37.89883 | 35205 ft | 457 kts | 91° |
| 2026-05-07 11:27 | 41.88744 | 37.98406 | 35201 ft | 457 kts | 91° |
| 2026-05-07 11:27 | 41.88556 | 38.06924 | 35205 ft | 457 kts | 91° |
| 2026-05-07 11:28 | 41.88362 | 38.15437 | 35203 ft | 456 kts | 91° |
| 2026-05-07 11:28 | 41.88162 | 38.23951 | 35202 ft | 456 kts | 91° |
| 2026-05-07 11:29 | 41.87955 | 38.32462 | 35201 ft | 456 kts | 91° |
| 2026-05-07 11:29 | 41.87744 | 38.40918 | 35206 ft | 457 kts | 91° |
| 2026-05-07 11:30 | 41.87524 | 38.49440 | 35206 ft | 457 kts | 91° |
| 2026-05-07 11:30 | 41.87298 | 38.57960 | 35203 ft | 457 kts | 91° |
| 2026-05-07 11:31 | 41.87066 | 38.66498 | 35206 ft | 458 kts | 91° |
| 2026-05-07 11:31 | 41.86827 | 38.75044 | 35206 ft | 459 kts | 92° |
| 2026-05-07 11:32 | 41.86456 | 38.87886 | 35205 ft | 460 kts | 92° |
| 2026-05-07 11:33 | 41.86200 | 38.96462 | 35201 ft | 460 kts | 92° |
| 2026-05-07 11:33 | 41.85937 | 39.05052 | 35205 ft | 461 kts | 92° |
| 2026-05-07 11:34 | 41.85668 | 39.13626 | 35193 ft | 459 kts | 91° |
| 2026-05-07 11:34 | 41.85394 | 39.22172 | 35201 ft | 459 kts | 91° |
| 2026-05-07 11:35 | 41.85114 | 39.30717 | 35206 ft | 458 kts | 91° |
| 2026-05-07 11:35 | 41.84830 | 39.39201 | 35205 ft | 458 kts | 92° |
| 2026-05-07 11:36 | 41.84538 | 39.47742 | 35206 ft | 458 kts | 92° |
| 2026-05-07 11:36 | 41.84242 | 39.56282 | 35210 ft | 458 kts | 92° |
| 2026-05-07 11:37 | 41.83951 | 39.64813 | 35206 ft | 458 kts | 92° |
| 2026-05-07 11:37 | 41.83654 | 39.73351 | 35205 ft | 458 kts | 92° |
| 2026-05-07 11:38 | 41.83351 | 39.81877 | 35208 ft | 458 kts | 92° |
| 2026-05-07 11:38 | 41.83040 | 39.90410 | 35210 ft | 458 kts | 92° |
| 2026-05-07 11:39 | 41.82725 | 39.98888 | 35207 ft | 458 kts | 92° |
| 2026-05-07 11:39 | 41.82401 | 40.07483 | 35207 ft | 459 kts | 92° |
| 2026-05-07 11:40 | 41.82070 | 40.15973 | 35209 ft | 459 kts | 92° |
| 2026-05-07 11:40 | 41.81710 | 40.24517 | 35204 ft | 459 kts | 93° |
| 2026-05-07 11:41 | 41.81342 | 40.33074 | 35204 ft | 460 kts | 93° |
| 2026-05-07 11:41 | 41.80970 | 40.41632 | 35204 ft | 460 kts | 93° |
| 2026-05-07 11:42 | 41.80593 | 40.50194 | 35206 ft | 461 kts | 93° |
| 2026-05-07 11:42 | 41.80211 | 40.58767 | 35206 ft | 461 kts | 93° |
| 2026-05-07 11:43 | 41.79819 | 40.67345 | 35201 ft | 461 kts | 94° |
| 2026-05-07 11:43 | 41.79404 | 40.75922 | 35199 ft | 461 kts | 94° |
| 2026-05-07 11:44 | 41.78978 | 40.84506 | 35201 ft | 462 kts | 94° |
| 2026-05-07 11:44 | 41.78549 | 40.93038 | 35201 ft | 462 kts | 94° |
| 2026-05-07 11:45 | 41.78113 | 41.01628 | 35200 ft | 462 kts | 94° |
| 2026-05-07 11:45 | 41.77671 | 41.10222 | 35204 ft | 463 kts | 94° |
| 2026-05-07 11:46 | 41.77222 | 41.18819 | 35205 ft | 463 kts | 94° |
| 2026-05-07 11:46 | 41.76766 | 41.27421 | 35207 ft | 463 kts | 94° |
| 2026-05-07 11:47 | 41.76304 | 41.36030 | 35204 ft | 463 kts | 94° |
| 2026-05-07 11:47 | 41.75835 | 41.44640 | 35204 ft | 464 kts | 95° |
| 2026-05-07 11:48 | 41.75359 | 41.53255 | 35209 ft | 464 kts | 95° |
| 2026-05-07 11:48 | 41.74876 | 41.61880 | 35207 ft | 465 kts | 95° |
| 2026-05-07 11:49 | 41.74386 | 41.70511 | 35207 ft | 465 kts | 95° |
| 2026-05-07 11:49 | 41.73890 | 41.79147 | 35205 ft | 466 kts | 95° |
| 2026-05-07 11:50 | 41.73386 | 41.87799 | 35195 ft | 467 kts | 95° |
| 2026-05-07 11:50 | 41.72874 | 41.96467 | 35191 ft | 467 kts | 95° |
| 2026-05-07 11:51 | 41.72357 | 42.05142 | 35191 ft | 468 kts | 96° |
| 2026-05-07 11:51 | 41.71833 | 42.13835 | 35186 ft | 469 kts | 96° |
| 2026-05-07 11:52 | 41.71309 | 42.22552 | 35183 ft | 470 kts | 96° |
| 2026-05-07 11:52 | 41.70782 | 42.31230 | 35181 ft | 472 kts | 96° |
| 2026-05-07 11:53 | 41.70243 | 42.39982 | 35186 ft | 472 kts | 96° |
| 2026-05-07 11:53 | 41.69696 | 42.48755 | 35179 ft | 474 kts | 96° |
| 2026-05-07 11:54 | 41.69142 | 42.57540 | 35172 ft | 474 kts | 96° |
| 2026-05-07 11:54 | 41.68580 | 42.66330 | 35181 ft | 474 kts | 96° |
| 2026-05-07 11:55 | 41.68011 | 42.75130 | 35172 ft | 475 kts | 97° |
| 2026-05-07 11:55 | 41.67437 | 42.83932 | 35169 ft | 475 kts | 97° |
| 2026-05-07 11:56 | 41.66845 | 42.92738 | 35170 ft | 476 kts | 97° |
| 2026-05-07 11:56 | 41.66337 | 43.00066 | 35164 ft | 476 kts | 97° |
| 2026-05-07 11:57 | 41.65720 | 43.08880 | 35167 ft | 476 kts | 97° |
| 2026-05-07 11:57 | 41.65145 | 43.17053 | 35164 ft | 477 kts | 97° |
| 2026-05-07 11:58 | 41.64518 | 43.25886 | 35164 ft | 477 kts | 97° |
| 2026-05-07 11:58 | 41.63883 | 43.34719 | 35169 ft | 478 kts | 98° |
| 2026-05-07 11:59 | 41.63241 | 43.43574 | 35155 ft | 478 kts | 98° |
| 2026-05-07 11:59 | 41.62593 | 43.52423 | 35165 ft | 479 kts | 98° |
| 2026-05-07 12:00 | 41.61939 | 43.61279 | 35165 ft | 479 kts | 98° |
| 2026-05-07 12:00 | 41.61279 | 43.70155 | 35168 ft | 480 kts | 98° |
| 2026-05-07 12:01 | 41.60612 | 43.79037 | 35152 ft | 481 kts | 98° |
| 2026-05-07 12:01 | 41.59938 | 43.87924 | 35154 ft | 481 kts | 98° |
| 2026-05-07 12:02 | 41.59257 | 43.96805 | 35169 ft | 481 kts | 98° |
| 2026-05-07 12:02 | 41.58568 | 44.05697 | 35157 ft | 482 kts | 99° |
| 2026-05-07 12:03 | 41.57872 | 44.14598 | 35156 ft | 482 kts | 99° |
| 2026-05-07 12:03 | 41.57073 | 44.23489 | 35146 ft | 481 kts | 105° |
| 2026-05-07 12:04 | 41.55167 | 44.31923 | 35145 ft | 477 kts | 112° |
| 2026-05-07 12:04 | 41.53006 | 44.40304 | 35152 ft | 478 kts | 113° |
| 2026-05-07 12:05 | 41.50869 | 44.48724 | 35143 ft | 479 kts | 112° |
| 2026-05-07 12:05 | 41.48763 | 44.57166 | 35139 ft | 480 kts | 112° |
| 2026-05-07 12:06 | 41.46732 | 44.65326 | 35139 ft | 480 kts | 112° |
| 2026-05-07 12:06 | 41.44620 | 44.73771 | 35128 ft | 480 kts | 113° |
| 2026-05-07 12:07 | 41.42499 | 44.82218 | 35128 ft | 481 kts | 113° |
| 2026-05-07 12:07 | 41.40369 | 44.90663 | 35123 ft | 481 kts | 113° |
| 2026-05-07 12:08 | 41.38232 | 44.99112 | 35119 ft | 482 kts | 113° |
| 2026-05-07 12:08 | 41.36102 | 45.07503 | 35118 ft | 482 kts | 114° |
| 2026-05-07 12:09 | 41.33945 | 45.15955 | 35118 ft | 482 kts | 114° |
| 2026-05-07 12:09 | 41.31777 | 45.24409 | 35116 ft | 483 kts | 114° |
| 2026-05-07 12:10 | 41.29603 | 45.32866 | 35116 ft | 484 kts | 114° |
| 2026-05-07 12:10 | 41.27420 | 45.41331 | 35116 ft | 485 kts | 114° |
| 2026-05-07 12:11 | 41.25225 | 45.49812 | 35112 ft | 485 kts | 114° |
| 2026-05-07 12:11 | 41.23023 | 45.58297 | 35111 ft | 486 kts | 114° |
| 2026-05-07 12:12 | 41.20810 | 45.66787 | 35107 ft | 487 kts | 114° |
| 2026-05-07 12:12 | 41.18570 | 45.75265 | 35107 ft | 487 kts | 114° |
| 2026-05-07 12:13 | 41.16318 | 45.83735 | 35105 ft | 487 kts | 115° |
| 2026-05-07 12:13 | 41.14061 | 45.92205 | 35108 ft | 486 kts | 115° |
| 2026-05-07 12:14 | 41.11819 | 46.00599 | 35106 ft | 486 kts | 115° |
| 2026-05-07 12:14 | 41.09557 | 46.09044 | 35106 ft | 486 kts | 115° |
| 2026-05-07 12:15 | 41.07290 | 46.17477 | 35107 ft | 486 kts | 115° |
| 2026-05-07 12:15 | 41.05018 | 46.25905 | 35109 ft | 486 kts | 115° |
| 2026-05-07 12:16 | 41.02749 | 46.34332 | 35099 ft | 486 kts | 115° |
| 2026-05-07 12:16 | 41.00499 | 46.42785 | 35101 ft | 487 kts | 115° |
| 2026-05-07 12:17 | 40.98241 | 46.51247 | 35092 ft | 487 kts | 115° |
| 2026-05-07 12:17 | 40.95975 | 46.59698 | 35101 ft | 487 kts | 115° |
| 2026-05-07 12:18 | 40.93701 | 46.68144 | 35103 ft | 488 kts | 115° |
| 2026-05-07 12:18 | 40.91453 | 46.76609 | 35109 ft | 491 kts | 110° |
| 2026-05-07 12:18 | 40.90797 | 46.81063 | 35113 ft | 498 kts | 99° |
| 2026-05-07 12:19 | 40.90708 | 46.85652 | 35111 ft | 503 kts | 89° |
| 2026-05-07 12:19 | 40.92041 | 46.94765 | 35116 ft | 507 kts | 77° |
| 2026-05-07 12:20 | 40.93832 | 47.03799 | 35104 ft | 508 kts | 77° |
| 2026-05-07 12:20 | 40.95569 | 47.12807 | 35113 ft | 509 kts | 78° |
| 2026-05-07 12:21 | 40.97253 | 47.21908 | 35116 ft | 510 kts | 78° |
| 2026-05-07 12:21 | 40.98913 | 47.31030 | 35110 ft | 510 kts | 78° |
| 2026-05-07 12:22 | 41.00570 | 47.40168 | 35117 ft | 510 kts | 78° |
| 2026-05-07 12:22 | 41.02221 | 47.49292 | 35119 ft | 510 kts | 78° |
| 2026-05-07 12:23 | 41.03868 | 47.58437 | 35115 ft | 510 kts | 78° |
| 2026-05-07 12:23 | 41.05508 | 47.67585 | 35109 ft | 510 kts | 79° |
| 2026-05-07 12:24 | 41.07138 | 47.76727 | 35115 ft | 510 kts | 79° |
| 2026-05-07 12:24 | 41.08761 | 47.85876 | 35111 ft | 510 kts | 79° |
| 2026-05-07 12:25 | 41.10379 | 47.95028 | 35111 ft | 509 kts | 79° |
| 2026-05-07 12:25 | 41.12400 | 48.04028 | 35121 ft | 510 kts | 71° |
| 2026-05-07 12:26 | 41.14931 | 48.12825 | 35112 ft | 510 kts | 70° |
| 2026-05-07 12:26 | 41.17467 | 48.21600 | 35116 ft | 508 kts | 70° |
| 2026-05-07 12:27 | 41.19929 | 48.30389 | 35113 ft | 508 kts | 71° |
| 2026-05-07 12:27 | 41.22355 | 48.39195 | 35097 ft | 508 kts | 71° |
| 2026-05-07 12:28 | 41.24771 | 48.47996 | 35118 ft | 507 kts | 71° |
| 2026-05-07 12:28 | 41.27179 | 48.56786 | 35090 ft | 506 kts | 71° |
| 2026-05-07 12:29 | 41.29584 | 48.65588 | 35106 ft | 506 kts | 71° |
| 2026-05-07 12:29 | 41.31984 | 48.74402 | 35085 ft | 507 kts | 71° |
| 2026-05-07 12:30 | 41.34216 | 48.82630 | 35101 ft | 508 kts | 71° |
| 2026-05-07 12:30 | 41.36610 | 48.91483 | 35091 ft | 509 kts | 71° |
| 2026-05-07 12:31 | 41.38999 | 49.00368 | 35093 ft | 510 kts | 71° |
| 2026-05-07 12:31 | 41.41383 | 49.09274 | 35090 ft | 511 kts | 72° |
| 2026-05-07 12:32 | 41.43764 | 49.18199 | 35091 ft | 511 kts | 72° |
| 2026-05-07 12:32 | 41.46140 | 49.27135 | 35088 ft | 512 kts | 72° |
| 2026-05-07 12:33 | 41.49692 | 49.40557 | 35093 ft | 511 kts | 72° |
| 2026-05-07 12:33 | 41.52047 | 49.49496 | 35093 ft | 511 kts | 72° |
| 2026-05-07 12:34 | 41.54393 | 49.58434 | 35088 ft | 510 kts | 72° |
| 2026-05-07 12:34 | 41.56727 | 49.67359 | 35089 ft | 509 kts | 72° |
| 2026-05-07 12:35 | 41.59051 | 49.76279 | 35091 ft | 508 kts | 72° |
| 2026-05-07 12:35 | 41.61364 | 49.85189 | 35090 ft | 507 kts | 72° |
| 2026-05-07 12:36 | 41.63669 | 49.94098 | 35094 ft | 507 kts | 72° |
| 2026-05-07 12:36 | 41.65963 | 50.03003 | 35093 ft | 507 kts | 72° |
| 2026-05-07 12:37 | 41.68237 | 50.11859 | 35092 ft | 507 kts | 72° |
| 2026-05-07 12:37 | 41.70517 | 50.20775 | 35092 ft | 507 kts | 72° |
| 2026-05-07 12:38 | 41.72792 | 50.29703 | 35090 ft | 507 kts | 72° |
| 2026-05-07 12:38 | 41.75061 | 50.38641 | 35090 ft | 507 kts | 73° |
| 2026-05-07 12:39 | 41.77326 | 50.47595 | 35090 ft | 508 kts | 73° |
| 2026-05-07 12:39 | 41.79584 | 50.56558 | 35090 ft | 508 kts | 73° |
| 2026-05-07 12:40 | 41.81837 | 50.65535 | 35093 ft | 508 kts | 73° |
| 2026-05-07 12:40 | 41.84084 | 50.74519 | 35093 ft | 509 kts | 73° |
| 2026-05-07 12:41 | 41.86326 | 50.83522 | 35088 ft | 509 kts | 73° |
| 2026-05-07 12:41 | 41.88563 | 50.92534 | 35094 ft | 509 kts | 73° |
| 2026-05-07 12:42 | 41.90791 | 51.01550 | 35094 ft | 509 kts | 73° |
| 2026-05-07 12:42 | 41.93000 | 51.10518 | 35093 ft | 509 kts | 73° |
| 2026-05-07 12:43 | 41.95216 | 51.19556 | 35092 ft | 509 kts | 73° |
| 2026-05-07 12:43 | 41.97424 | 51.28594 | 35086 ft | 509 kts | 73° |
| 2026-05-07 12:44 | 41.99626 | 51.37637 | 35093 ft | 509 kts | 73° |
| 2026-05-07 12:44 | 42.01998 | 51.46607 | 35085 ft | 510 kts | 65° |
| 2026-05-07 12:45 | 42.05660 | 51.54760 | 35094 ft | 510 kts | 56° |
| 2026-05-07 12:45 | 42.09612 | 51.62685 | 35094 ft | 510 kts | 56° |
| 2026-05-07 12:46 | 42.13533 | 51.70642 | 35087 ft | 510 kts | 56° |
| 2026-05-07 12:46 | 42.17410 | 51.78654 | 35088 ft | 510 kts | 57° |
| 2026-05-07 12:47 | 42.21266 | 51.86690 | 35081 ft | 510 kts | 57° |
| 2026-05-07 12:47 | 42.25114 | 51.94735 | 35080 ft | 510 kts | 57° |
| 2026-05-07 12:48 | 42.28959 | 52.02785 | 35082 ft | 510 kts | 57° |
| 2026-05-07 12:48 | 42.32151 | 52.09482 | 35081 ft | 510 kts | 57° |
| 2026-05-07 12:49 | 42.36607 | 52.18853 | 35078 ft | 510 kts | 57° |
| 2026-05-07 12:49 | 42.40434 | 52.26926 | 35079 ft | 509 kts | 57° |
| 2026-05-07 12:50 | 42.43606 | 52.33635 | 35077 ft | 509 kts | 57° |
| 2026-05-07 12:50 | 42.47419 | 52.41719 | 35078 ft | 509 kts | 57° |
| 2026-05-07 12:51 | 42.51221 | 52.49802 | 35076 ft | 509 kts | 57° |
| 2026-05-07 12:51 | 42.55018 | 52.57897 | 35078 ft | 508 kts | 57° |
| 2026-05-07 12:52 | 42.58805 | 52.65992 | 35075 ft | 508 kts | 57° |
| 2026-05-07 12:52 | 42.62588 | 52.74098 | 35073 ft | 508 kts | 57° |
| 2026-05-07 12:53 | 42.66363 | 52.82212 | 35073 ft | 508 kts | 57° |
| 2026-05-07 12:53 | 42.70133 | 52.90337 | 35069 ft | 508 kts | 57° |
| 2026-05-07 12:54 | 42.73896 | 52.98469 | 35067 ft | 508 kts | 58° |
| 2026-05-07 12:54 | 42.77631 | 53.06562 | 35062 ft | 508 kts | 58° |
| 2026-05-07 12:55 | 42.81385 | 53.14719 | 35062 ft | 508 kts | 58° |
| 2026-05-07 12:55 | 42.85133 | 53.22885 | 35059 ft | 508 kts | 58° |
| 2026-05-07 12:56 | 42.88874 | 53.31060 | 35053 ft | 508 kts | 58° |
| 2026-05-07 12:56 | 42.92611 | 53.39249 | 35053 ft | 508 kts | 58° |
| 2026-05-07 12:57 | 42.96344 | 53.47451 | 35049 ft | 509 kts | 58° |
| 2026-05-07 12:57 | 42.99917 | 53.55788 | 35030 ft | 508 kts | 67° |
| 2026-05-07 12:58 | 43.01959 | 53.64959 | 35034 ft | 503 kts | 85° |
| 2026-05-07 12:58 | 43.02611 | 53.74442 | 35036 ft | 501 kts | 89° |
| 2026-05-07 12:59 | 43.03164 | 53.83946 | 35031 ft | 502 kts | 88° |
| 2026-05-07 12:59 | 43.03757 | 53.93454 | 35028 ft | 503 kts | 88° |
| 2026-05-07 13:00 | 43.04381 | 54.02974 | 35026 ft | 503 kts | 88° |
| 2026-05-07 13:00 | 43.05007 | 54.12508 | 35031 ft | 504 kts | 88° |
| 2026-05-07 13:01 | 43.05620 | 54.21989 | 35017 ft | 504 kts | 88° |
| 2026-05-07 13:01 | 43.06227 | 54.31542 | 35024 ft | 505 kts | 88° |
| 2026-05-07 13:02 | 43.06826 | 54.41101 | 35022 ft | 505 kts | 88° |
| 2026-05-07 13:02 | 43.07417 | 54.50669 | 35014 ft | 505 kts | 88° |
| 2026-05-07 13:03 | 43.08000 | 54.60232 | 35024 ft | 504 kts | 88° |
| 2026-05-07 13:03 | 43.08575 | 54.69789 | 35025 ft | 504 kts | 89° |
| 2026-05-07 13:04 | 43.09141 | 54.79344 | 35025 ft | 504 kts | 89° |
| 2026-05-07 13:04 | 43.09699 | 54.88905 | 35018 ft | 504 kts | 89° |
| 2026-05-07 13:05 | 43.10249 | 54.98457 | 35017 ft | 504 kts | 89° |
| 2026-05-07 13:05 | 43.10792 | 55.08015 | 35019 ft | 503 kts | 89° |
| 2026-05-07 13:06 | 43.11322 | 55.17497 | 35019 ft | 503 kts | 89° |
| 2026-05-07 13:06 | 43.11847 | 55.27037 | 35020 ft | 503 kts | 89° |
| 2026-05-07 13:07 | 43.12364 | 55.36580 | 35021 ft | 503 kts | 89° |
| 2026-05-07 13:07 | 43.12874 | 55.46123 | 35019 ft | 503 kts | 89° |
| 2026-05-07 13:08 | 43.13376 | 55.55675 | 35022 ft | 503 kts | 89° |
| 2026-05-07 13:08 | 43.13869 | 55.65219 | 35016 ft | 503 kts | 89° |
| 2026-05-07 13:09 | 43.14355 | 55.74769 | 35013 ft | 503 kts | 89° |
| 2026-05-07 13:09 | 43.14833 | 55.84327 | 35012 ft | 503 kts | 89° |
| 2026-05-07 13:10 | 43.15304 | 55.93879 | 35010 ft | 503 kts | 90° |
| 2026-05-07 13:10 | 43.15736 | 56.03431 | 35007 ft | 502 kts | 91° |
| 2026-05-07 13:11 | 43.15874 | 56.12976 | 35007 ft | 501 kts | 93° |
| 2026-05-07 13:11 | 43.15914 | 56.22519 | 35005 ft | 501 kts | 94° |
| 2026-05-07 13:12 | 43.15976 | 56.32061 | 35006 ft | 501 kts | 93° |
| 2026-05-07 13:12 | 43.16062 | 56.41611 | 35007 ft | 501 kts | 93° |
| 2026-05-07 13:13 | 43.16151 | 56.51094 | 35003 ft | 501 kts | 93° |
| 2026-05-07 13:13 | 43.16233 | 56.60641 | 35004 ft | 501 kts | 93° |
| 2026-05-07 13:14 | 43.16305 | 56.70254 | 34996 ft | 501 kts | 93° |
| 2026-05-07 13:14 | 43.16367 | 56.79734 | 35000 ft | 501 kts | 94° |
| 2026-05-07 13:15 | 43.16422 | 56.89278 | 34992 ft | 501 kts | 94° |
| 2026-05-07 13:15 | 43.16469 | 56.98821 | 34992 ft | 501 kts | 94° |
| 2026-05-07 13:16 | 43.16507 | 57.08365 | 34990 ft | 501 kts | 94° |
| 2026-05-07 13:16 | 43.16539 | 57.17915 | 34993 ft | 501 kts | 94° |
| 2026-05-07 13:17 | 43.16562 | 57.27469 | 34986 ft | 502 kts | 94° |
| 2026-05-07 13:17 | 43.16577 | 57.37020 | 34987 ft | 502 kts | 94° |
| 2026-05-07 13:18 | 43.16584 | 57.46582 | 34993 ft | 502 kts | 94° |
| 2026-05-07 13:18 | 43.16583 | 57.56142 | 34990 ft | 502 kts | 94° |
| 2026-05-07 13:19 | 43.16574 | 57.65710 | 34989 ft | 502 kts | 94° |
| 2026-05-07 13:19 | 43.16558 | 57.75281 | 35001 ft | 502 kts | 94° |
| 2026-05-07 13:20 | 43.16533 | 57.84854 | 34995 ft | 503 kts | 94° |
| 2026-05-07 13:20 | 43.16500 | 57.94429 | 34984 ft | 503 kts | 95° |
| 2026-05-07 13:21 | 43.16460 | 58.03999 | 34991 ft | 502 kts | 95° |
| 2026-05-07 13:21 | 43.16412 | 58.13501 | 34990 ft | 502 kts | 95° |
| 2026-05-07 13:22 | 43.16355 | 58.23060 | 34985 ft | 502 kts | 95° |
| 2026-05-07 13:22 | 43.16291 | 58.32612 | 34985 ft | 501 kts | 95° |
| 2026-05-07 13:23 | 43.16219 | 58.42152 | 34982 ft | 501 kts | 95° |
| 2026-05-07 13:23 | 43.16139 | 58.51682 | 34985 ft | 500 kts | 95° |
| 2026-05-07 13:24 | 43.16051 | 58.61201 | 34982 ft | 500 kts | 95° |
| 2026-05-07 13:24 | 43.15955 | 58.70712 | 34978 ft | 499 kts | 95° |
| 2026-05-07 13:25 | 43.15852 | 58.80215 | 34978 ft | 499 kts | 95° |
| 2026-05-07 13:25 | 43.15740 | 58.89709 | 34972 ft | 498 kts | 95° |
| 2026-05-07 13:26 | 43.15622 | 58.99192 | 34971 ft | 498 kts | 95° |
| 2026-05-07 13:26 | 43.15495 | 59.08667 | 34971 ft | 498 kts | 95° |
| 2026-05-07 13:27 | 43.15360 | 59.18144 | 34975 ft | 497 kts | 96° |
| 2026-05-07 13:27 | 43.15218 | 59.27611 | 34966 ft | 497 kts | 96° |
| 2026-05-07 13:28 | 43.15068 | 59.37077 | 34966 ft | 497 kts | 96° |
| 2026-05-07 13:28 | 43.14910 | 59.46532 | 34964 ft | 497 kts | 96° |
| 2026-05-07 13:29 | 43.14746 | 59.55927 | 34960 ft | 497 kts | 96° |
| 2026-05-07 13:29 | 43.14573 | 59.65381 | 34952 ft | 496 kts | 96° |
| 2026-05-07 13:30 | 43.14392 | 59.74825 | 34955 ft | 496 kts | 96° |
| 2026-05-07 13:30 | 43.14204 | 59.84268 | 34954 ft | 496 kts | 96° |
| 2026-05-07 13:31 | 43.14008 | 59.93708 | 34945 ft | 496 kts | 96° |
| 2026-05-07 13:31 | 43.13804 | 60.03132 | 34943 ft | 495 kts | 96° |
| 2026-05-07 13:32 | 43.13593 | 60.12554 | 34939 ft | 495 kts | 96° |
| 2026-05-07 13:32 | 43.13374 | 60.21969 | 34939 ft | 494 kts | 96° |
| 2026-05-07 13:33 | 43.13147 | 60.31375 | 34930 ft | 494 kts | 96° |
| 2026-05-07 13:33 | 43.12914 | 60.40770 | 34927 ft | 493 kts | 96° |
| 2026-05-07 13:34 | 43.12549 | 60.54836 | 34926 ft | 493 kts | 97° |
| 2026-05-07 13:35 | 43.12297 | 60.64201 | 34916 ft | 492 kts | 97° |
| 2026-05-07 13:35 | 43.12037 | 60.73558 | 34918 ft | 492 kts | 97° |
| 2026-05-07 13:36 | 43.11770 | 60.82904 | 34913 ft | 491 kts | 97° |
| 2026-05-07 13:36 | 43.11495 | 60.92244 | 34910 ft | 491 kts | 97° |
| 2026-05-07 13:37 | 43.11215 | 61.01510 | 34908 ft | 490 kts | 97° |
| 2026-05-07 13:37 | 43.10926 | 61.10828 | 34902 ft | 490 kts | 97° |
| 2026-05-07 13:38 | 43.10630 | 61.20133 | 34901 ft | 489 kts | 97° |
| 2026-05-07 13:38 | 43.10327 | 61.29430 | 34902 ft | 489 kts | 97° |
| 2026-05-07 13:39 | 43.10016 | 61.38713 | 34898 ft | 488 kts | 97° |
| 2026-05-07 13:39 | 43.09699 | 61.47984 | 34893 ft | 488 kts | 97° |
| 2026-05-07 13:40 | 43.09374 | 61.57249 | 34897 ft | 487 kts | 98° |
| 2026-05-07 13:40 | 43.09043 | 61.66492 | 34895 ft | 486 kts | 98° |
| 2026-05-07 13:41 | 43.08704 | 61.75726 | 34880 ft | 486 kts | 98° |
| 2026-05-07 13:41 | 43.08358 | 61.84945 | 34876 ft | 485 kts | 98° |
| 2026-05-07 13:42 | 43.08005 | 61.94144 | 34877 ft | 484 kts | 98° |
| 2026-05-07 13:42 | 43.07649 | 62.03271 | 34872 ft | 483 kts | 98° |
| 2026-05-07 13:43 | 43.07283 | 62.12440 | 34869 ft | 482 kts | 98° |
| 2026-05-07 13:43 | 43.06910 | 62.21593 | 34865 ft | 482 kts | 98° |
| 2026-05-07 13:44 | 43.06531 | 62.30728 | 34868 ft | 481 kts | 98° |
| 2026-05-07 13:44 | 43.06210 | 62.38312 | 34860 ft | 480 kts | 98° |
| 2026-05-07 13:45 | 43.05819 | 62.47423 | 34867 ft | 479 kts | 98° |
| 2026-05-07 13:45 | 43.05421 | 62.56511 | 34861 ft | 479 kts | 98° |
| 2026-05-07 13:46 | 43.05017 | 62.65590 | 34863 ft | 478 kts | 98° |
| 2026-05-07 13:46 | 43.04606 | 62.74653 | 34860 ft | 477 kts | 98° |
| 2026-05-07 13:47 | 43.04189 | 62.83705 | 34864 ft | 477 kts | 98° |
| 2026-05-07 13:47 | 43.03653 | 62.92718 | 34862 ft | 475 kts | 100° |
| 2026-05-07 13:48 | 43.02939 | 63.01681 | 34860 ft | 474 kts | 101° |
| 2026-05-07 13:48 | 43.02221 | 63.10632 | 34862 ft | 474 kts | 100° |
| 2026-05-07 13:49 | 43.01524 | 63.19597 | 34861 ft | 474 kts | 100° |
| 2026-05-07 13:49 | 43.00832 | 63.28551 | 34862 ft | 474 kts | 100° |
| 2026-05-07 13:50 | 43.00137 | 63.37451 | 34858 ft | 474 kts | 100° |
| 2026-05-07 13:50 | 42.99429 | 63.46408 | 34853 ft | 474 kts | 100° |
| 2026-05-07 13:51 | 42.98715 | 63.55357 | 34856 ft | 474 kts | 100° |
| 2026-05-07 13:51 | 42.97994 | 63.64302 | 34859 ft | 474 kts | 100° |
| 2026-05-07 13:52 | 42.97267 | 63.73238 | 34855 ft | 474 kts | 100° |
| 2026-05-07 13:52 | 42.96538 | 63.82170 | 34861 ft | 473 kts | 100° |
| 2026-05-07 13:53 | 42.95807 | 63.91094 | 34857 ft | 473 kts | 100° |
| 2026-05-07 13:53 | 42.95069 | 64.00011 | 34862 ft | 473 kts | 100° |
| 2026-05-07 13:54 | 42.94323 | 64.08927 | 34863 ft | 473 kts | 100° |
| 2026-05-07 13:54 | 42.93570 | 64.17841 | 34862 ft | 473 kts | 100° |
| 2026-05-07 13:55 | 42.92815 | 64.26699 | 34861 ft | 473 kts | 100° |
| 2026-05-07 13:55 | 42.92048 | 64.35616 | 34864 ft | 473 kts | 100° |
| 2026-05-07 13:56 | 42.91274 | 64.44540 | 34862 ft | 474 kts | 100° |
| 2026-05-07 13:56 | 42.90491 | 64.53473 | 34867 ft | 474 kts | 100° |
| 2026-05-07 13:57 | 42.89701 | 64.62411 | 34864 ft | 475 kts | 100° |
| 2026-05-07 13:57 | 42.88902 | 64.71366 | 34865 ft | 476 kts | 100° |
| 2026-05-07 13:58 | 42.88095 | 64.80327 | 34869 ft | 476 kts | 100° |
| 2026-05-07 13:58 | 42.87281 | 64.89297 | 34871 ft | 477 kts | 100° |
| 2026-05-07 13:59 | 42.86460 | 64.98273 | 34866 ft | 477 kts | 100° |
| 2026-05-07 13:59 | 42.85631 | 65.07251 | 34875 ft | 478 kts | 100° |
| 2026-05-07 14:00 | 42.84784 | 65.16232 | 34874 ft | 478 kts | 101° |
| 2026-05-07 14:00 | 42.83927 | 65.25213 | 34876 ft | 478 kts | 101° |
| 2026-05-07 14:01 | 42.83063 | 65.34203 | 34867 ft | 478 kts | 100° |
| 2026-05-07 14:01 | 42.82200 | 65.43128 | 34881 ft | 478 kts | 100° |
| 2026-05-07 14:02 | 42.81324 | 65.52115 | 34884 ft | 479 kts | 100° |
| 2026-05-07 14:02 | 42.80441 | 65.61101 | 34879 ft | 479 kts | 100° |
| 2026-05-07 14:03 | 42.79550 | 65.70099 | 34884 ft | 479 kts | 100° |
| 2026-05-07 14:03 | 42.79515 | 65.79182 | 34895 ft | 483 kts | 83° |
| 2026-05-07 14:04 | 42.81194 | 65.88039 | 34900 ft | 484 kts | 73° |
| 2026-05-07 14:04 | 42.83162 | 65.96811 | 34893 ft | 485 kts | 74° |
| 2026-05-07 14:05 | 42.85039 | 66.05629 | 34897 ft | 484 kts | 74° |
| 2026-05-07 14:05 | 42.86867 | 66.14467 | 34907 ft | 484 kts | 75° |
| 2026-05-07 14:06 | 42.88653 | 66.23312 | 34905 ft | 484 kts | 75° |
| 2026-05-07 14:06 | 42.90430 | 66.32148 | 34911 ft | 482 kts | 75° |
| 2026-05-07 14:07 | 42.92200 | 66.40962 | 34912 ft | 481 kts | 75° |
| 2026-05-07 14:07 | 42.93948 | 66.49693 | 34892 ft | 465 kts | 75° |
| 2026-05-07 14:07 | 42.94772 | 66.53822 | 34896 ft | 449 kts | 75° |
| 2026-05-07 14:08 | 42.95576 | 66.57860 | 34891 ft | 433 kts | 75° |
| 2026-05-07 14:08 | 42.96354 | 66.61757 | 34894 ft | 418 kts | 75° |
| 2026-05-07 14:08 | 42.97121 | 66.65547 | 34909 ft | 413 kts | 74° |
| 2026-05-07 14:09 | 42.98673 | 66.73193 | 34945 ft | 423 kts | 74° |
| 2026-05-07 14:09 | 43.00252 | 66.81048 | 34947 ft | 434 kts | 75° |
| 2026-05-07 14:10 | 43.01834 | 66.89025 | 34932 ft | 435 kts | 75° |
| 2026-05-07 14:10 | 43.03408 | 66.97004 | 34936 ft | 435 kts | 75° |
| 2026-05-07 14:11 | 43.04975 | 67.04973 | 34937 ft | 434 kts | 75° |
| 2026-05-07 14:11 | 43.06536 | 67.12935 | 34941 ft | 433 kts | 75° |
| 2026-05-07 14:12 | 43.08089 | 67.20886 | 34941 ft | 432 kts | 75° |
| 2026-05-07 14:12 | 43.09633 | 67.28830 | 34945 ft | 432 kts | 75° |
| 2026-05-07 14:13 | 43.11171 | 67.36770 | 34943 ft | 431 kts | 75° |
| 2026-05-07 14:13 | 43.12703 | 67.44707 | 34946 ft | 431 kts | 75° |
| 2026-05-07 14:14 | 43.14225 | 67.52650 | 34951 ft | 432 kts | 75° |
| 2026-05-07 14:14 | 43.15743 | 67.60615 | 34952 ft | 432 kts | 75° |
| 2026-05-07 14:15 | 43.17247 | 67.68537 | 34956 ft | 433 kts | 75° |
| 2026-05-07 14:15 | 43.18761 | 67.76536 | 34954 ft | 434 kts | 75° |
| 2026-05-07 14:16 | 43.20230 | 67.84571 | 34958 ft | 435 kts | 76° |
| 2026-05-07 14:16 | 43.21603 | 67.92653 | 34876 ft | 434 kts | 76° |
| 2026-05-07 14:16 | 43.22281 | 67.96673 | 34467 ft | 432 kts | 76° |
| 2026-05-07 14:17 | 43.22960 | 68.00693 | 33858 ft | 434 kts | 76° |
| 2026-05-07 14:17 | 43.23646 | 68.04742 | 33102 ft | 438 kts | 76° |
| 2026-05-07 14:17 | 43.24338 | 68.08821 | 32361 ft | 442 kts | 76° |
| 2026-05-07 14:17 | 43.25039 | 68.12954 | 31655 ft | 445 kts | 76° |
| 2026-05-07 14:18 | 43.25741 | 68.17099 | 30976 ft | 447 kts | 76° |
| 2026-05-07 14:18 | 43.26443 | 68.21259 | 30351 ft | 448 kts | 76° |
| 2026-05-07 14:18 | 43.27137 | 68.25431 | 29692 ft | 449 kts | 79° |
| 2026-05-07 14:18 | 43.27216 | 68.29678 | 29045 ft | 445 kts | 102° |
| 2026-05-07 14:19 | 43.26285 | 68.33612 | 28996 ft | 425 kts | 119° |
| 2026-05-07 14:19 | 43.24699 | 68.36915 | 28812 ft | 408 kts | 135° |
| 2026-05-07 14:19 | 43.22620 | 68.39470 | 28378 ft | 397 kts | 150° |
| 2026-05-07 14:19 | 43.20194 | 68.41169 | 27828 ft | 389 kts | 166° |
| 2026-05-07 14:20 | 43.17584 | 68.41953 | 27295 ft | 381 kts | 180° |
| 2026-05-07 14:20 | 43.14974 | 68.41827 | 26822 ft | 371 kts | 194° |
| 2026-05-07 14:20 | 43.12530 | 68.40862 | 26375 ft | 362 kts | 208° |
| 2026-05-07 14:20 | 43.10374 | 68.39167 | 25929 ft | 355 kts | 221° |
| 2026-05-07 14:21 | 43.08611 | 68.36923 | 25489 ft | 349 kts | 231° |
| 2026-05-07 14:21 | 43.07160 | 68.34296 | 25056 ft | 344 kts | 241° |
| 2026-05-07 14:21 | 43.06168 | 68.31351 | 24620 ft | 340 kts | 253° |
| 2026-05-07 14:21 | 43.05525 | 68.28249 | 24230 ft | 337 kts | 257° |
| 2026-05-07 14:22 | 43.04972 | 68.25143 | 23829 ft | 336 kts | 257° |
| 2026-05-07 14:22 | 43.04436 | 68.22046 | 23401 ft | 334 kts | 257° |
| 2026-05-07 14:22 | 43.03896 | 68.18968 | 22948 ft | 332 kts | 257° |
| 2026-05-07 14:22 | 43.03347 | 68.15910 | 22508 ft | 330 kts | 257° |
| 2026-05-07 14:23 | 43.02794 | 68.12873 | 22071 ft | 329 kts | 257° |
| 2026-05-07 14:23 | 43.02239 | 68.09851 | 21622 ft | 327 kts | 257° |
| 2026-05-07 14:23 | 43.01684 | 68.06843 | 21195 ft | 326 kts | 257° |
| 2026-05-07 14:23 | 43.01355 | 68.03803 | 20746 ft | 324 kts | 271° |
| 2026-05-07 14:24 | 43.01632 | 68.00761 | 20331 ft | 323 kts | 282° |
| 2026-05-07 14:24 | 43.02290 | 67.97838 | 19928 ft | 322 kts | 290° |
| 2026-05-07 14:24 | 43.03284 | 67.95098 | 19518 ft | 322 kts | 300° |
| 2026-05-07 14:24 | 43.04651 | 67.92665 | 19119 ft | 324 kts | 312° |
| 2026-05-07 14:25 | 43.06378 | 67.90697 | 18738 ft | 325 kts | 325° |
| 2026-05-07 14:25 | 43.08382 | 67.89341 | 18644 ft | 317 kts | 338° |
| 2026-05-07 14:25 | 43.10489 | 67.88634 | 18559 ft | 309 kts | 350° |
| 2026-05-07 14:25 | 43.12598 | 67.88554 | 18513 ft | 298 kts | 1° |
| 2026-05-07 14:26 | 43.14612 | 67.89028 | 18214 ft | 293 kts | 13° |
| 2026-05-07 14:26 | 43.16522 | 67.90033 | 17651 ft | 296 kts | 24° |
| 2026-05-07 14:26 | 43.18261 | 67.91539 | 17055 ft | 297 kts | 36° |
| 2026-05-07 14:26 | 43.19775 | 67.93475 | 16486 ft | 298 kts | 45° |
| 2026-05-07 14:27 | 43.21085 | 67.95674 | 15952 ft | 297 kts | 53° |
| 2026-05-07 14:27 | 43.22077 | 67.98149 | 15433 ft | 297 kts | 68° |
| 2026-05-07 14:27 | 43.22660 | 68.00843 | 14919 ft | 293 kts | 74° |
| 2026-05-07 14:27 | 43.23167 | 68.03540 | 14323 ft | 291 kts | 75° |
| 2026-05-07 14:28 | 43.23661 | 68.06231 | 13728 ft | 290 kts | 75° |
| 2026-05-07 14:28 | 43.24143 | 68.08908 | 13116 ft | 288 kts | 76° |
| 2026-05-07 14:28 | 43.24596 | 68.11561 | 12548 ft | 283 kts | 76° |
| 2026-05-07 14:28 | 43.25030 | 68.14141 | 11949 ft | 278 kts | 76° |
| 2026-05-07 14:29 | 43.25460 | 68.16684 | 11207 ft | 272 kts | 76° |
| 2026-05-07 14:29 | 43.25890 | 68.19224 | 10472 ft | 267 kts | 76° |
| 2026-05-07 14:29 | 43.26305 | 68.21677 | 9771 ft | 261 kts | 76° |
| 2026-05-07 14:29 | 43.26712 | 68.24080 | 9019 ft | 256 kts | 76° |
| 2026-05-07 14:30 | 43.26870 | 68.26481 | 8245 ft | 253 kts | 100° |
| 2026-05-07 14:30 | 43.26166 | 68.28617 | 7618 ft | 244 kts | 129° |
| 2026-05-07 14:30 | 43.24959 | 68.30135 | 7043 ft | 235 kts | 144° |
| 2026-05-07 14:30 | 43.23627 | 68.31401 | 6462 ft | 230 kts | 147° |
| 2026-05-07 14:31 | 43.22211 | 68.32344 | 5870 ft | 223 kts | 157° |
| 2026-05-07 14:31 | 43.21093 | 68.33689 | 5334 ft | 214 kts | 114° |
| 2026-05-07 14:31 | 43.21010 | 68.35620 | 4851 ft | 204 kts | 68° |
| 2026-05-07 14:31 | 43.21805 | 68.37166 | 4405 ft | 197 kts | 50° |
| 2026-05-07 14:32 | 43.22664 | 68.38620 | 3940 ft | 196 kts | 51° |
| 2026-05-07 14:32 | 43.23507 | 68.40084 | 3454 ft | 195 kts | 51° |
| 2026-05-07 14:32 | 43.24346 | 68.41530 | 3064 ft | 190 kts | 50° |
| 2026-05-07 14:32 | 43.25126 | 68.42969 | 2686 ft | 185 kts | 54° |
| 2026-05-07 14:33 | 43.25818 | 68.44356 | 2441 ft | 175 kts | 54° |
| 2026-05-07 14:33 | 43.26475 | 68.45686 | 2219 ft | 164 kts | 54° |
| 2026-05-07 14:33 | 43.27096 | 68.46940 | 2012 ft | 156 kts | 54° |
| 2026-05-07 14:33 | 43.27704 | 68.48167 | 1831 ft | 157 kts | 54° |
| 2026-05-07 14:34 | 43.28318 | 68.49404 | 1627 ft | 157 kts | 54° |
| 2026-05-07 14:34 | 43.28929 | 68.50639 | 1413 ft | 157 kts | 54° |
| 2026-05-07 14:34 | 43.29537 | 68.51865 | 1207 ft | 155 kts | 54° |
| 2026-05-07 14:34 | 43.30141 | 68.53087 | 1010 ft | 154 kts | 54° |
| 2026-05-07 14:35 | 43.30726 | 68.54262 | 920 ft | 130 kts | 54° |
| 2026-05-07 14:35 | 43.31113 | 68.55042 | 918 ft | 68 kts | 56° |
| 2026-05-07 14:35 | 43.31258 | 68.55334 | 916 ft | 10 kts | 56° |
| 2026-05-07 14:35 | 43.31299 | 68.55416 | 914 ft | 11 kts | 55° |
| 2026-05-07 14:36 | 43.31347 | 68.55511 | 914 ft | 13 kts | 55° |
| 2026-05-07 14:36 | 43.31410 | 68.55590 | 915 ft | 13 kts | 6° |
| 2026-05-07 14:36 | 43.31463 | 68.55559 | 916 ft | 13 kts | 326° |
| 2026-05-07 14:36 | 43.31527 | 68.55499 | 918 ft | 10 kts | 325° |
| 2026-05-07 14:37 | 43.31583 | 68.55445 | 918 ft | 10 kts | 324° |
| 2026-05-07 14:37 | 43.31650 | 68.55312 | 918 ft | 9 kts | 244° |
| 2026-05-07 14:37 | 43.31615 | 68.55240 | 921 ft | 9 kts | 236° |
| 2026-05-07 14:38 | 43.31581 | 68.55169 | 918 ft | 9 kts | 236° |
| 2026-05-07 14:38 | 43.31547 | 68.55101 | 919 ft | 9 kts | 234° |
| 2026-05-07 14:38 | 43.31513 | 68.55035 | 922 ft | 8 kts | 235° |
| 2026-05-07 14:38 | 43.31484 | 68.54975 | 921 ft | 4 kts | 236° |
| 2026-05-07 14:39 | 43.31476 | 68.54958 | 919 ft | 2 kts | 236° |
| 2026-05-07 14:39 | 43.31469 | 68.54945 | 919 ft | 2 kts | 236° |
| 2026-05-07 14:39 | 43.31456 | 68.54917 | 919 ft | 5 kts | 236° |
| 2026-05-07 14:39 | 43.31443 | 68.54865 | 919 ft | 6 kts | 289° |
| 2026-05-07 14:40 | 43.31477 | 68.54829 | 919 ft | 6 kts | 325° |
| 2026-05-07 14:40 | 43.31508 | 68.54800 | 923 ft | 2 kts | 326° |
| 2026-05-07 14:40 | 43.31517 | 68.54792 | 920 ft | 1 kts | 326° |